Time;durP1;ratioP1;P1;durP2;ratioP2;P2;SDS_P1;SDS_P2;PMS_P1;PMS_P2;Temp;Humidity;BMP_temperature;BMP_pressure;BME280_temperature;BME280_humidity;BME280_pressure;Samples;Min_cycle;Max_cycle;Signal;HPM_P1;HPM_P2
2024/02/16 00:00:46;;;;;;;1.97;0.70;;;10.10;96.60;;;;;;5053431;28;20575;-58
2024/02/16 00:03:12;;;;;;;2.08;1.00;;;10.10;96.50;;;;;;5053512;28;20646;-58
2024/02/16 00:05:38;;;;;;;2.70;0.70;;;10.10;96.50;;;;;;5053564;28;20167;-58
2024/02/16 00:08:04;;;;;;;1.93;0.67;;;10.10;96.70;;;;;;5053167;28;20881;-58
2024/02/16 00:10:30;;;;;;;0.77;0.77;;;10.10;96.80;;;;;;5053171;28;20213;-58
2024/02/16 00:12:56;;;;;;;1.40;1.30;;;10.00;97.10;;;;;;5053293;28;20817;-58
2024/02/16 00:15:22;;;;;;;1.48;0.80;;;10.00;97.30;;;;;;5053515;28;20181;-58
2024/02/16 00:17:48;;;;;;;0.60;0.60;;;10.00;97.30;;;;;;5053786;28;20201;-59
2024/02/16 00:20:14;;;;;;;2.10;1.00;;;10.00;97.20;;;;;;5052777;28;20550;-58
2024/02/16 00:22:40;;;;;;;1.48;1.05;;;9.90;97.90;;;;;;5048481;28;20249;-58
2024/02/16 00:25:06;;;;;;;1.05;0.90;;;9.90;97.90;;;;;;5067421;28;20272;-59
2024/02/16 00:27:33;;;;;;;2.20;1.30;;;10.00;97.20;;;;;;5069600;28;20195;-58
2024/02/16 00:30:03;;;;;;;2.60;1.23;;;10.00;96.90;;;;;;5062791;28;20201;-58
2024/02/16 00:32:33;;;;;;;1.88;1.08;;;10.00;97.10;;;;;;5063737;28;20651;-59
2024/02/16 00:35:00;;;;;;;2.10;1.60;;;10.00;96.90;;;;;;5061828;28;20613;-58
2024/02/16 00:37:26;;;;;;;5.03;2.13;;;9.90;97.50;;;;;;5063963;28;20289;-59
2024/02/16 00:39:54;;;;;;;3.03;0.87;;;9.80;97.80;;;;;;5066504;28;20292;-58
2024/02/16 00:42:21;;;;;;;1.40;1.17;;;9.70;97.90;;;;;;5061912;28;20166;-58
2024/02/16 00:44:47;;;;;;;1.67;1.52;;;9.70;98.00;;;;;;5053681;28;20295;-58
2024/02/16 00:47:14;;;;;;;0.90;0.87;;;9.70;98.20;;;;;;5051673;28;20278;-58
2024/02/16 00:49:40;;;;;;;2.72;1.00;;;9.70;98.20;;;;;;5052453;28;20198;-58
2024/02/16 00:52:06;;;;;;;1.40;0.83;;;9.60;98.20;;;;;;5052613;28;20199;-58
2024/02/16 00:54:31;;;;;;;1.40;1.30;;;9.50;98.40;;;;;;5052488;28;20174;-58
2024/02/16 00:57:02;;;;;;;1.40;1.30;;;9.50;98.80;;;;;;5052146;28;20170;-58
2024/02/16 00:59:28;;;;;;;1.98;0.90;;;9.50;98.90;;;;;;5052470;28;20190;-58
2024/02/16 01:01:53;;;;;;;1.95;0.77;;;9.50;98.80;;;;;;5052416;28;20182;-58
2024/02/16 01:04:19;;;;;;;2.90;0.77;;;9.50;98.70;;;;;;5052147;28;20173;-58
2024/02/16 01:06:46;;;;;;;0.77;0.77;;;9.50;98.90;;;;;;5052002;28;20588;-58
2024/02/16 01:09:12;;;;;;;2.13;1.15;;;9.30;99.10;;;;;;5051916;28;20578;-58
2024/02/16 01:11:41;;;;;;;4.07;1.17;;;9.30;99.40;;;;;;5052099;28;20177;-59
2024/02/16 01:14:07;;;;;;;1.00;1.00;;;9.30;99.50;;;;;;5052382;28;20570;-58
2024/02/16 01:16:32;;;;;;;0.70;0.60;;;9.30;99.40;;;;;;5052096;28;20591;-58
2024/02/16 01:18:58;;;;;;;1.90;1.27;;;9.30;99.30;;;;;;5052850;28;20206;-58
2024/02/16 01:21:24;;;;;;;1.90;1.60;;;9.20;99.40;;;;;;5052923;28;20239;-58
2024/02/16 01:23:49;;;;;;;0.60;0.60;;;9.20;99.40;;;;;;5066667;28;20181;-58
2024/02/16 01:26:15;;;;;;;1.27;1.00;;;9.30;99.20;;;;;;5071852;28;20169;-58
2024/02/16 01:28:41;;;;;;;0.50;0.50;;;9.40;98.90;;;;;;5071763;28;20169;-58
2024/02/16 01:31:09;;;;;;;0.73;0.73;;;9.40;98.60;;;;;;5072043;28;20529;-58
2024/02/16 01:33:35;;;;;;;1.55;0.88;;;9.50;98.20;;;;;;5072395;28;20170;-58
2024/02/16 01:36:02;;;;;;;1.00;0.68;;;9.50;98.40;;;;;;5066280;28;20209;-58
2024/02/16 01:38:28;;;;;;;0.95;0.90;;;9.50;98.60;;;;;;5071457;28;20212;-58
2024/02/16 01:40:54;;;;;;;0.50;0.50;;;9.50;98.50;;;;;;5071626;28;20285;-58
2024/02/16 01:43:21;;;;;;;3.93;0.73;;;9.50;98.50;;;;;;5071640;28;20174;-58
2024/02/16 01:45:47;;;;;;;0.50;0.50;;;9.50;98.50;;;;;;5071618;28;20173;-58
2024/02/16 01:48:14;;;;;;;0.95;0.77;;;9.50;98.40;;;;;;5071258;28;20220;-58
2024/02/16 01:50:43;;;;;;;0.73;0.47;;;9.50;98.60;;;;;;5071391;28;20569;-58
2024/02/16 01:53:09;;;;;;;0.80;0.60;;;9.50;98.50;;;;;;5071476;28;20170;-58
2024/02/16 01:55:35;;;;;;;1.58;0.60;;;9.60;98.50;;;;;;5071578;28;20208;-58
2024/02/16 01:58:01;;;;;;;1.37;0.90;;;9.30;98.30;;;;;;5071211;28;20237;-58
2024/02/16 02:00:26;;;;;;;0.90;0.70;;;9.10;98.80;;;;;;5071370;28;20511;-59
2024/02/16 02:02:52;;;;;;;1.30;1.20;;;9.20;99.10;;;;;;5071386;28;20230;-58
2024/02/16 02:05:18;;;;;;;1.27;1.17;;;9.30;99.10;;;;;;5071345;28;20170;-58
2024/02/16 02:07:43;;;;;;;3.70;1.33;;;9.30;98.80;;;;;;5071080;28;20165;-58
2024/02/16 02:10:13;;;;;;;1.43;0.80;;;9.30;98.90;;;;;;5071205;28;20208;-58
2024/02/16 02:12:39;;;;;;;0.60;0.57;;;9.30;99.00;;;;;;5071529;28;20455;-58
2024/02/16 02:15:05;;;;;;;0.75;0.75;;;9.30;98.90;;;;;;5071432;28;20215;-58
2024/02/16 02:17:31;;;;;;;0.90;0.90;;;9.20;98.90;;;;;;5072863;28;20549;-58
2024/02/16 02:19:57;;;;;;;0.80;0.80;;;9.20;99.00;;;;;;5075391;28;20192;-58
2024/02/16 02:22:22;;;;;;;3.20;1.00;;;9.20;99.00;;;;;;5075382;28;20601;-57
2024/02/16 02:24:49;;;;;;;0.57;0.57;;;9.10;99.00;;;;;;5075523;28;20176;-58
2024/02/16 02:27:15;;;;;;;0.57;0.57;;;9.00;99.10;;;;;;5057169;28;20243;-58
2024/02/16 02:29:41;;;;;;;0.70;0.70;;;9.00;99.20;;;;;;5075248;28;20631;-58
2024/02/16 02:32:08;;;;;;;0.80;0.80;;;9.00;99.40;;;;;;5075210;28;20170;-58
2024/02/16 02:34:34;;;;;;;0.60;0.60;;;8.80;99.50;;;;;;5075144;28;20180;-58
2024/02/16 02:36:59;;;;;;;1.33;0.80;;;8.80;99.70;;;;;;5074949;28;20228;-58
2024/02/16 02:39:25;;;;;;;1.23;1.13;;;8.80;99.50;;;;;;5075108;28;20662;-58
2024/02/16 02:41:51;;;;;;;1.63;1.40;;;8.90;99.40;;;;;;5072666;28;20204;-58
2024/02/16 02:44:18;;;;;;;0.70;0.70;;;9.00;99.10;;;;;;5072287;28;20858;-58
2024/02/16 02:46:44;;;;;;;0.85;0.85;;;8.90;99.00;;;;;;5074554;28;20720;-58
2024/02/16 02:49:10;;;;;;;0.60;0.60;;;8.80;99.20;;;;;;5074681;28;20181;-58
2024/02/16 02:51:36;;;;;;;2.15;0.70;;;8.60;99.30;;;;;;5074631;28;20172;-58
2024/02/16 02:54:02;;;;;;;0.77;0.77;;;8.60;99.40;;;;;;5074776;28;20603;-58
2024/02/16 02:56:28;;;;;;;0.50;0.50;;;8.60;99.40;;;;;;5074624;28;20727;-58
2024/02/16 02:58:53;;;;;;;0.87;0.87;;;8.70;98.80;;;;;;5074543;28;20276;-58
2024/02/16 03:01:22;;;;;;;0.80;0.70;;;8.80;98.30;;;;;;5074622;28;20558;-58
2024/02/16 03:03:48;;;;;;;0.80;0.70;;;8.70;98.10;;;;;;5074486;28;20280;-59
2024/02/16 03:06:18;;;;;;;0.60;0.60;;;8.70;98.40;;;;;;5074778;28;20177;-59
2024/02/16 03:08:43;;;;;;;0.85;0.85;;;8.60;98.80;;;;;;5074503;28;20181;-58
2024/02/16 03:11:09;;;;;;;0.83;0.80;;;8.60;99.00;;;;;;5074385;28;20706;-58
2024/02/16 03:13:35;;;;;;;1.13;0.90;;;8.60;99.10;;;;;;5074382;28;20174;-58
2024/02/16 03:16:00;;;;;;;0.63;0.63;;;8.70;99.00;;;;;;5074408;28;20177;-58
2024/02/16 03:18:32;;;;;;;0.63;0.63;;;8.80;98.60;;;;;;5074279;28;20193;-58
2024/02/16 03:20:58;;;;;;;1.15;0.45;;;8.80;98.40;;;;;;5074357;28;20181;-58
2024/02/16 03:23:24;;;;;;;0.60;0.60;;;8.80;98.00;;;;;;5074318;28;20174;-58
2024/02/16 03:25:50;;;;;;;0.77;0.73;;;8.90;97.70;;;;;;5074140;28;20260;-58
2024/02/16 03:28:16;;;;;;;1.00;0.60;;;8.80;97.70;;;;;;5073768;28;20931;-58
2024/02/16 03:30:43;;;;;;;0.90;0.90;;;8.80;97.70;;;;;;5073942;28;20193;-58
2024/02/16 03:33:09;;;;;;;0.93;0.70;;;8.70;97.80;;;;;;5074205;28;20261;-58
2024/02/16 03:35:36;;;;;;;0.55;0.55;;;8.60;97.90;;;;;;5074053;28;20896;-58
2024/02/16 03:38:02;;;;;;;0.90;0.70;;;8.60;97.90;;;;;;5073711;28;20212;-58
2024/02/16 03:40:28;;;;;;;0.90;0.70;;;8.70;97.80;;;;;;5072462;28;20726;-58
2024/02/16 03:42:54;;;;;;;2.35;0.98;;;8.60;97.70;;;;;;5073860;28;20208;-58
2024/02/16 03:45:20;;;;;;;1.10;1.00;;;8.60;97.70;;;;;;5073891;28;20212;-58
2024/02/16 03:47:48;;;;;;;1.77;0.93;;;8.60;97.40;;;;;;5073685;28;20657;-58
2024/02/16 03:50:14;;;;;;;0.90;0.90;;;8.60;97.20;;;;;;5072966;28;20208;-58
2024/02/16 03:52:40;;;;;;;2.33;0.90;;;8.50;97.00;;;;;;5069785;28;20209;-58
2024/02/16 03:55:06;;;;;;;0.80;0.80;;;8.40;97.10;;;;;;5073565;28;20496;-58
2024/02/16 03:57:31;;;;;;;0.88;0.88;;;8.30;97.20;;;;;;5073270;28;20693;-58
2024/02/16 03:59:57;;;;;;;0.73;0.73;;;8.30;97.50;;;;;;5073748;28;20194;-58
2024/02/16 04:02:23;;;;;;;0.60;0.60;;;8.30;97.40;;;;;;5073588;28;20170;-58
2024/02/16 04:04:48;;;;;;;1.37;1.00;;;8.40;97.20;;;;;;5073474;28;20165;-58
2024/02/16 04:07:14;;;;;;;0.77;0.77;;;8.30;96.90;;;;;;5067954;28;20225;-58
2024/02/16 04:09:40;;;;;;;0.70;0.70;;;8.10;98.00;;;;;;5073175;28;20663;-58
2024/02/16 04:12:06;;;;;;;0.83;0.83;;;8.10;98.30;;;;;;5055462;28;20181;-58
2024/02/16 04:14:33;;;;;;;1.03;1.03;;;8.10;98.30;;;;;;5073745;28;20184;-58
2024/02/16 04:16:59;;;;;;;0.75;0.75;;;8.10;98.20;;;;;;5072944;28;20419;-58
2024/02/16 04:19:28;;;;;;;1.10;1.00;;;8.00;98.50;;;;;;5073729;28;20638;-58
2024/02/16 04:21:54;;;;;;;2.35;0.90;;;8.00;98.70;;;;;;5073306;28;20595;-58
2024/02/16 04:24:19;;;;;;;1.37;0.80;;;8.10;98.50;;;;;;5073160;28;20248;-58
2024/02/16 04:26:45;;;;;;;0.90;0.90;;;8.10;98.50;;;;;;5073006;28;20482;-58
2024/02/16 04:29:11;;;;;;;0.73;0.70;;;8.10;98.50;;;;;;5072943;28;20529;-58
2024/02/16 04:31:42;;;;;;;1.40;0.90;;;8.10;98.40;;;;;;5073083;28;20181;-58
2024/02/16 04:34:10;;;;;;;0.80;0.80;;;8.20;98.40;;;;;;5072824;28;20192;-58
2024/02/16 04:36:36;;;;;;;0.73;0.73;;;8.20;98.50;;;;;;5072676;28;20533;-58
2024/02/16 04:39:01;;;;;;;1.00;0.90;;;8.30;98.50;;;;;;5072772;28;20208;-58
2024/02/16 04:41:27;;;;;;;3.97;0.90;;;8.30;98.40;;;;;;5072202;28;20241;-58
2024/02/16 04:43:56;;;;;;;1.10;0.93;;;8.40;98.50;;;;;;5072837;28;20948;-58
2024/02/16 04:46:22;;;;;;;0.77;0.65;;;8.40;98.30;;;;;;5072657;28;20189;-58
2024/02/16 04:48:48;;;;;;;1.02;0.90;;;8.50;98.20;;;;;;5072402;28;20181;-59
2024/02/16 04:51:13;;;;;;;1.57;0.80;;;8.50;98.00;;;;;;5072538;28;20277;-58
2024/02/16 04:53:39;;;;;;;1.90;1.03;;;8.50;98.10;;;;;;5072568;28;20283;-58
2024/02/16 04:56:05;;;;;;;1.07;0.97;;;8.60;98.00;;;;;;5072486;28;20415;-58
2024/02/16 04:58:33;;;;;;;3.47;1.10;;;8.70;97.70;;;;;;5072108;28;20207;-58
2024/02/16 05:00:59;;;;;;;1.15;0.93;;;8.70;97.60;;;;;;5072440;28;20194;-58
2024/02/16 05:03:25;;;;;;;1.58;1.00;;;8.70;97.60;;;;;;5072460;28;20195;-58
2024/02/16 05:05:52;;;;;;;1.07;0.77;;;8.70;97.80;;;;;;5072178;28;20166;-58
2024/02/16 05:08:17;;;;;;;1.48;0.98;;;8.70;98.00;;;;;;5071997;28;20707;-58
2024/02/16 05:10:43;;;;;;;0.93;0.90;;;8.80;98.00;;;;;;5071914;28;20217;-58
2024/02/16 05:13:09;;;;;;;1.33;1.00;;;8.80;98.00;;;;;;5072179;28;20174;-58
2024/02/16 05:15:35;;;;;;;2.65;0.90;;;8.90;97.70;;;;;;5072060;28;20181;-58
2024/02/16 05:18:00;;;;;;;0.97;0.70;;;9.00;97.50;;;;;;5071753;28;20204;-58
2024/02/16 05:20:26;;;;;;;1.03;0.70;;;8.90;97.60;;;;;;5071960;28;20185;-58
2024/02/16 05:22:52;;;;;;;1.33;1.20;;;8.90;97.70;;;;;;5064381;28;20319;-59
2024/02/16 05:25:18;;;;;;;1.47;1.00;;;8.80;97.70;;;;;;5052032;28;20167;-59
2024/02/16 05:27:45;;;;;;;0.80;0.80;;;8.90;97.90;;;;;;5051757;28;20185;-58
2024/02/16 05:30:12;;;;;;;0.68;0.60;;;9.00;97.80;;;;;;5051840;28;20186;-58
2024/02/16 05:32:38;;;;;;;1.13;1.13;;;9.00;97.60;;;;;;5051854;28;20182;-57
2024/02/16 05:35:11;;;;;;;1.52;1.08;;;9.00;97.70;;;;;;5051680;28;20170;-58
2024/02/16 05:37:40;;;;;;;2.22;1.02;;;9.00;97.80;;;;;;5051484;28;20209;-58
2024/02/16 05:40:21;;;;;;;1.42;1.33;;;9.00;97.70;;;;;;5051231;28;20186;-58
2024/02/16 05:42:47;;;;;;;2.72;0.80;;;9.00;97.70;;;;;;5052178;28;20266;-58
2024/02/16 05:45:14;;;;;;;1.10;1.00;;;9.00;97.80;;;;;;5052325;28;20178;-58
2024/02/16 05:47:40;;;;;;;0.80;0.80;;;9.10;97.80;;;;;;5051411;28;20176;-58
2024/02/16 05:50:07;;;;;;;3.05;0.80;;;9.00;97.60;;;;;;5051585;28;20209;-58
2024/02/16 05:52:32;;;;;;;1.92;1.15;;;9.10;97.80;;;;;;5050985;28;20182;-58
2024/02/16 05:54:58;;;;;;;1.43;1.33;;;9.10;97.80;;;;;;5051467;28;20182;-59
2024/02/16 05:57:24;;;;;;;1.73;0.83;;;9.00;97.90;;;;;;5051164;28;20233;-58
2024/02/16 05:59:51;;;;;;;0.98;0.90;;;9.10;97.90;;;;;;5051386;28;20198;-58
2024/02/16 06:02:17;;;;;;;1.90;1.80;;;9.10;97.80;;;;;;5051298;28;20268;-58
2024/02/16 06:04:43;;;;;;;1.23;1.23;;;9.00;97.60;;;;;;5051648;28;20194;-58
2024/02/16 06:07:09;;;;;;;2.60;1.53;;;9.00;97.70;;;;;;5051076;28;20925;-58
2024/02/16 06:09:34;;;;;;;1.20;1.00;;;9.00;97.70;;;;;;5051237;28;20296;-58
2024/02/16 06:12:03;;;;;;;1.40;0.90;;;9.00;97.90;;;;;;5051414;28;20177;-58
2024/02/16 06:14:30;;;;;;;2.50;1.30;;;9.00;97.90;;;;;;5051239;28;20416;-58
2024/02/16 06:17:19;;;;;;;1.48;1.08;;;9.00;97.90;;;;;;5051171;28;20185;-58
2024/02/16 06:19:45;;;;;;;1.70;1.20;;;8.90;97.90;;;;;;5051402;28;20611;-58
2024/02/16 06:22:10;;;;;;;1.57;1.47;;;8.90;97.90;;;;;;5051325;28;20305;-58
2024/02/16 06:24:36;;;;;;;2.60;2.40;;;8.90;98.00;;;;;;5060057;28;20177;-57
2024/02/16 06:27:03;;;;;;;1.50;1.40;;;8.90;98.10;;;;;;5070796;28;20597;-58
2024/02/16 06:29:30;;;;;;;1.95;1.40;;;8.80;98.10;;;;;;5071219;28;20189;-58
2024/02/16 06:31:56;;;;;;;1.52;1.33;;;8.90;98.10;;;;;;5071281;28;20185;-58
2024/02/16 06:34:22;;;;;;;1.25;1.20;;;8.90;98.00;;;;;;5070933;28;20645;-58
2024/02/16 06:36:47;;;;;;;1.53;1.43;;;8.90;98.00;;;;;;5070969;28;20522;-58
2024/02/16 06:39:16;;;;;;;4.50;1.73;;;8.90;98.10;;;;;;5070758;28;20201;-58
2024/02/16 06:41:43;;;;;;;1.90;1.63;;;8.90;98.30;;;;;;5070500;28;20226;-58
2024/02/16 06:44:09;;;;;;;3.85;1.65;;;8.90;98.40;;;;;;5070749;28;20718;-58
2024/02/16 06:46:35;;;;;;;2.43;1.70;;;9.00;98.50;;;;;;5070846;28;20280;-58
2024/02/16 06:49:00;;;;;;;2.53;1.90;;;9.00;98.40;;;;;;5070800;28;20205;-59
2024/02/16 06:51:28;;;;;;;2.13;1.40;;;8.90;98.30;;;;;;5070634;28;20193;-58
2024/02/16 06:53:54;;;;;;;1.90;1.10;;;9.00;98.30;;;;;;5070827;28;20583;-58
2024/02/16 06:56:20;;;;;;;1.30;1.17;;;9.10;98.20;;;;;;5048136;28;20226;-58
2024/02/16 06:58:46;;;;;;;1.60;1.10;;;9.20;98.10;;;;;;5050519;28;20679;-58
2024/02/16 07:01:19;;;;;;;1.52;1.02;;;9.30;98.00;;;;;;5050702;28;20926;-58
2024/02/16 07:03:45;;;;;;;1.88;1.75;;;9.20;98.10;;;;;;5052985;28;20174;-57
2024/02/16 07:06:13;;;;;;;1.70;1.47;;;9.30;98.20;;;;;;5054451;28;20640;-58
2024/02/16 07:08:40;;;;;;;1.73;1.02;;;9.30;98.30;;;;;;5054211;28;20414;-58
2024/02/16 07:11:05;;;;;;;1.30;1.20;;;9.30;98.30;;;;;;5054234;28;20370;-58
2024/02/16 07:13:34;;;;;;;1.03;0.90;;;9.30;98.40;;;;;;5054466;28;20206;-58
2024/02/16 07:16:00;;;;;;;2.20;1.48;;;9.50;98.40;;;;;;5054284;28;20259;-58
2024/02/16 07:18:26;;;;;;;2.80;1.30;;;9.50;98.30;;;;;;5054034;28;20600;-58
2024/02/16 07:20:52;;;;;;;1.37;1.27;;;9.60;98.30;;;;;;5054279;28;20503;-58
2024/02/16 07:23:18;;;;;;;1.83;1.03;;;9.60;98.20;;;;;;5054116;28;20181;-58
2024/02/16 07:25:43;;;;;;;1.20;1.10;;;9.70;98.30;;;;;;5054183;28;20451;-58
2024/02/16 07:28:09;;;;;;;0.70;0.70;;;9.70;98.20;;;;;;5054032;28;20178;-58
2024/02/16 07:30:39;;;;;;;1.30;1.20;;;9.70;98.20;;;;;;5053908;28;20763;-58
2024/02/16 07:33:07;;;;;;;2.60;1.83;;;9.80;98.40;;;;;;5054131;28;20169;-58
2024/02/16 07:35:37;;;;;;;1.40;1.05;;;9.80;98.20;;;;;;5053964;28;20170;-57
2024/02/16 07:38:04;;;;;;;1.55;1.45;;;10.00;97.60;;;;;;5053520;28;20232;-58
2024/02/16 07:40:30;;;;;;;5.32;1.30;;;10.00;97.80;;;;;;5053753;28;20654;-58
2024/02/16 07:42:56;;;;;;;0.80;0.80;;;10.10;97.70;;;;;;5053857;28;20213;-58
2024/02/16 07:45:22;;;;;;;1.83;1.30;;;10.10;97.70;;;;;;5053840;28;20209;-61
2024/02/16 07:47:48;;;;;;;3.77;2.33;;;10.30;97.40;;;;;;5053364;28;20409;-58
2024/02/16 07:50:17;;;;;;;0.90;0.90;;;10.50;97.40;;;;;;5053669;28;20280;-59
2024/02/16 07:52:43;;;;;;;6.43;2.37;;;10.60;97.40;;;;;;5053413;28;20193;-58
2024/02/16 07:55:09;;;;;;;2.30;1.60;;;10.50;97.40;;;;;;5053976;28;20417;-59
2024/02/16 07:57:35;;;;;;;1.50;1.40;;;10.60;97.70;;;;;;5053573;28;20205;-59
2024/02/16 08:00:00;;;;;;;1.80;1.70;;;10.70;97.70;;;;;;5053910;28;20268;-58
2024/02/16 08:02:26;;;;;;;2.30;1.50;;;10.70;97.80;;;;;;5053676;28;20219;-58
2024/02/16 08:04:52;;;;;;;2.07;1.40;;;10.90;97.70;;;;;;5053562;28;20258;-58
2024/02/16 08:07:17;;;;;;;1.20;1.20;;;11.00;97.50;;;;;;5053030;28;20171;-58
2024/02/16 08:09:46;;;;;;;1.73;1.57;;;11.20;96.50;;;;;;5053291;28;20448;-58
2024/02/16 08:12:15;;;;;;;1.53;1.43;;;11.40;96.80;;;;;;5053515;28;20171;-58
2024/02/16 08:14:41;;;;;;;3.50;2.93;;;11.60;96.60;;;;;;5052376;28;20819;-59
2024/02/16 08:17:08;;;;;;;2.40;1.37;;;12.00;96.60;;;;;;5052907;28;20405;-59
2024/02/16 08:19:35;;;;;;;2.30;1.87;;;12.40;96.50;;;;;;5052871;28;20455;-58
2024/02/16 08:22:03;;;;;;;2.53;1.67;;;12.90;96.60;;;;;;5053351;28;20750;-59
2024/02/16 08:24:28;;;;;;;1.70;1.10;;;13.70;96.20;;;;;;5053268;28;20552;-59
2024/02/16 08:26:54;;;;;;;4.10;2.63;;;14.60;94.40;;;;;;5052814;28;20449;-59
2024/02/16 08:29:20;;;;;;;4.67;1.43;;;15.40;93.30;;;;;;5052959;28;20687;-59
2024/02/16 08:31:49;;;;;;;3.20;1.90;;;16.10;92.30;;;;;;5053024;28;20172;-59
2024/02/16 08:34:14;;;;;;;4.60;3.30;;;16.80;91.00;;;;;;5052863;28;20176;-59
2024/02/16 08:36:44;;;;;;;6.13;5.07;;;17.30;86.20;;;;;;5052578;28;20411;-59
2024/02/16 08:39:11;;;;;;;3.83;2.40;;;17.60;84.70;;;;;;5052638;28;20227;-59
2024/02/16 08:41:37;;;;;;;5.20;4.60;;;18.40;81.90;;;;;;5052895;28;20937;-59
2024/02/16 08:44:03;;;;;;;7.17;4.77;;;19.40;79.80;;;;;;5052691;28;20409;-60
2024/02/16 08:46:29;;;;;;;7.13;4.90;;;20.30;73.90;;;;;;5052644;28;20474;-57
2024/02/16 08:48:55;;;;;;;5.57;3.73;;;21.40;72.00;;;;;;5052459;28;20421;-59
2024/02/16 08:51:20;;;;;;;7.63;4.70;;;22.40;67.90;;;;;;5052650;28;20323;-59
2024/02/16 08:53:46;;;;;;;7.50;4.27;;;23.30;64.40;;;;;;5052682;28;20178;-61
2024/02/16 08:56:12;;;;;;;4.10;3.20;;;24.10;60.50;;;;;;5052583;28;20170;-60
2024/02/16 08:58:38;;;;;;;5.40;2.80;;;24.40;55.70;;;;;;5052309;28;20194;-60
2024/02/16 09:01:04;;;;;;;9.87;2.50;;;24.60;53.90;;;;;;5052366;28;20197;-60
2024/02/16 09:03:36;;;;;;;4.13;1.33;;;24.80;53.30;;;;;;5052264;28;20418;-59
2024/02/16 09:06:02;;;;;;;2.60;0.90;;;24.90;50.80;;;;;;5052578;28;20405;-60
2024/02/16 09:08:32;;;;;;;2.70;1.33;;;24.60;49.10;;;;;;5051919;28;20404;-60
2024/02/16 09:11:07;;;;;;;3.80;1.10;;;24.50;48.10;;;;;;5051890;28;20535;-60
2024/02/16 09:13:33;;;;;;;4.73;1.33;;;23.70;48.80;;;;;;5051289;28;20410;-59
2024/02/16 09:15:59;;;;;;;1.67;1.20;;;23.00;49.30;;;;;;5052105;28;20455;-59
2024/02/16 09:18:25;;;;;;;1.80;0.87;;;22.60;51.00;;;;;;5051526;28;20453;-59
2024/02/16 09:20:51;;;;;;;2.43;1.33;;;22.10;51.50;;;;;;5052109;28;21075;-59
2024/02/16 09:23:17;;;;;;;0.80;0.80;;;22.00;51.10;;;;;;5051755;28;20715;-60
2024/02/16 09:25:43;;;;;;;3.53;1.40;;;21.70;51.40;;;;;;5051493;28;20166;-60
2024/02/16 09:28:09;;;;;;;1.53;1.00;;;21.40;52.00;;;;;;5051222;28;20701;-60
2024/02/16 09:30:36;;;;;;;1.47;1.13;;;21.50;53.00;;;;;;5051760;28;20432;-61
2024/02/16 09:33:02;;;;;;;4.50;1.00;;;21.90;52.50;;;;;;5051894;28;20169;-61
2024/02/16 09:35:28;;;;;;;1.67;1.10;;;21.90;51.90;;;;;;5051994;28;20417;-60
2024/02/16 09:37:53;;;;;;;3.50;1.40;;;22.40;51.70;;;;;;5051592;28;20641;-61
2024/02/16 09:40:20;;;;;;;3.20;1.23;;;22.30;51.50;;;;;;5051691;28;20194;-61
2024/02/16 09:42:51;;;;;;;1.03;0.90;;;22.40;51.20;;;;;;5051664;28;20174;-60
2024/02/16 09:45:17;;;;;;;1.50;0.90;;;22.90;50.50;;;;;;5051823;28;20397;-60
2024/02/16 09:47:44;;;;;;;1.40;1.30;;;23.60;50.00;;;;;;5051325;28;20413;-60
2024/02/16 09:50:10;;;;;;;1.10;0.87;;;24.00;50.00;;;;;;5051572;28;20498;-60
2024/02/16 09:52:37;;;;;;;4.30;1.10;;;24.10;48.40;;;;;;5051599;28;20512;-60
2024/02/16 09:55:07;;;;;;;2.40;1.47;;;24.30;48.50;;;;;;5051643;28;20419;-60
2024/02/16 09:57:33;;;;;;;1.73;1.20;;;24.00;47.90;;;;;;5033806;28;20551;-61
2024/02/16 09:59:59;;;;;;;3.90;2.17;;;23.40;48.50;;;;;;5051670;28;20528;-60
2024/02/16 10:02:25;;;;;;;3.10;1.30;;;22.90;49.60;;;;;;5051473;28;20265;-60
2024/02/16 10:04:50;;;;;;;1.10;1.00;;;22.10;49.90;;;;;;5051347;28;20492;-60
2024/02/16 10:07:16;;;;;;;2.17;1.37;;;22.10;51.20;;;;;;5051100;28;20758;-60
2024/02/16 10:09:42;;;;;;;2.77;0.93;;;22.70;50.90;;;;;;5050618;28;20213;-60
2024/02/16 10:12:07;;;;;;;3.20;1.20;;;23.60;49.70;;;;;;5112232;22;20237;-62
2024/02/16 10:14:33;;;;;;;2.03;1.10;;;24.20;49.40;;;;;;5070827;28;20222;-61
2024/02/16 10:17:07;;;;;;;1.17;1.07;;;24.90;48.40;;;;;;5070865;28;20173;-61
2024/02/16 10:19:39;;;;;;;2.73;1.60;;;25.00;47.50;;;;;;5071463;28;20173;-62
2024/02/16 10:22:09;;;;;;;1.67;1.50;;;24.10;49.10;;;;;;5071096;28;20518;-62
2024/02/16 10:24:34;;;;;;;2.07;1.50;;;23.60;49.60;;;;;;5071238;28;20773;-62
2024/02/16 10:27:00;;;;;;;1.37;1.27;;;23.30;50.00;;;;;;5070892;28;20407;-62
2024/02/16 10:29:27;;;;;;;2.43;1.90;;;23.00;51.10;;;;;;5070950;28;20177;-61
2024/02/16 10:31:53;;;;;;;2.80;1.30;;;22.10;51.50;;;;;;5071225;28;20189;-61
2024/02/16 10:34:20;;;;;;;3.40;1.47;;;21.30;53.30;;;;;;5071639;28;20415;-61
2024/02/16 10:36:46;;;;;;;6.17;1.20;;;20.40;53.90;;;;;;5057565;28;20188;-61
2024/02/16 10:39:13;;;;;;;1.10;1.00;;;19.80;55.70;;;;;;5054262;28;20457;-61
2024/02/16 10:41:41;;;;;;;2.07;1.77;;;19.00;57.30;;;;;;5054838;28;20795;-61
2024/02/16 10:44:07;;;;;;;3.00;1.43;;;18.50;58.70;;;;;;5054951;28;20461;-61
2024/02/16 10:46:34;;;;;;;4.70;2.07;;;18.30;59.80;;;;;;5054919;28;20456;-61
2024/02/16 10:49:00;;;;;;;3.30;2.00;;;18.10;60.50;;;;;;5055372;28;20407;-61
2024/02/16 10:51:31;;;;;;;2.33;1.47;;;18.00;61.30;;;;;;5054642;28;20407;-61
2024/02/16 10:53:59;;;;;;;6.73;1.27;;;17.90;61.80;;;;;;5054946;28;20416;-61
2024/02/16 10:56:38;;;;;;;1.60;1.10;;;17.60;62.60;;;;;;5054963;28;20417;-61
2024/02/16 10:59:08;;;;;;;2.47;1.53;;;17.40;64.00;;;;;;5054724;28;20472;-61
2024/02/16 11:01:44;;;;;;;3.03;1.50;;;17.30;64.90;;;;;;5054590;28;20425;-61
2024/02/16 11:04:16;;;;;;;4.43;2.00;;;17.00;65.80;;;;;;5054678;28;20456;-61
2024/02/16 11:06:56;;;;;;;4.53;1.70;;;16.80;67.10;;;;;;5054398;28;20408;-61
2024/02/16 11:09:35;;;;;;;4.20;2.10;;;16.50;68.80;;;;;;5054668;28;20795;-61
2024/02/16 11:12:08;;;;;;;3.07;1.27;;;16.40;70.00;;;;;;5054282;28;20471;-61
2024/02/16 11:14:44;;;;;;;2.20;1.30;;;16.20;70.80;;;;;;5054727;28;20412;-61
2024/02/16 11:17:15;;;;;;;3.97;1.70;;;16.00;72.40;;;;;;5053671;28;20504;-61
2024/02/16 11:19:42;;;;;;;2.30;2.10;;;15.70;72.80;;;;;;5054483;28;20403;-61
2024/02/16 11:22:11;;;;;;;1.67;1.57;;;15.50;74.10;;;;;;5054270;28;20420;-61
2024/02/16 11:24:44;;;;;;;2.33;1.70;;;15.30;75.80;;;;;;5053624;28;20405;-61
2024/02/16 11:27:10;;;;;;;1.57;1.47;;;15.20;76.90;;;;;;5053668;28;20928;-61
2024/02/16 11:29:38;;;;;;;3.37;1.70;;;15.30;77.80;;;;;;5054294;28;20405;-61
2024/02/16 11:32:05;;;;;;;4.03;1.57;;;15.40;78.40;;;;;;5054151;28;20451;-61
2024/02/16 11:34:32;;;;;;;2.07;1.30;;;15.40;78.70;;;;;;5054078;28;20412;-61
2024/02/16 11:36:58;;;;;;;4.30;1.90;;;15.50;79.00;;;;;;5053776;28;20500;-61
2024/02/16 11:39:32;;;;;;;1.73;1.50;;;15.50;79.00;;;;;;5053908;28;20444;-61
2024/02/16 11:42:05;;;;;;;5.40;1.60;;;15.30;80.60;;;;;;5053864;28;20431;-61
2024/02/16 11:44:32;;;;;;;1.60;1.47;;;15.30;81.60;;;;;;5053903;28;20454;-61
2024/02/16 11:46:59;;;;;;;3.57;1.50;;;15.10;82.00;;;;;;5053711;28;20434;-61
2024/02/16 11:49:24;;;;;;;2.30;1.80;;;14.90;83.00;;;;;;5052441;28;20409;-61
2024/02/16 11:51:51;;;;;;;5.60;1.60;;;14.90;84.60;;;;;;5053508;28;20430;-61
2024/02/16 11:54:17;;;;;;;4.00;1.70;;;14.90;85.80;;;;;;5053932;28;20612;-61
2024/02/16 11:56:45;;;;;;;1.97;1.53;;;14.80;86.40;;;;;;5053354;28;20490;-61
2024/02/16 11:59:15;;;;;;;2.00;1.80;;;14.70;87.40;;;;;;5053487;28;20458;-60
2024/02/16 12:01:58;;;;;;;2.00;1.40;;;14.70;88.40;;;;;;5053623;28;20425;-61
2024/02/16 12:04:25;;;;;;;2.27;1.40;;;14.70;88.50;;;;;;5053592;28;20408;-61
2024/02/16 12:07:02;;;;;;;1.63;1.50;;;14.60;89.50;;;;;;5053536;28;20405;-61
2024/02/16 12:09:28;;;;;;;1.37;1.27;;;14.40;90.20;;;;;;5053472;28;20493;-61
2024/02/16 12:11:55;;;;;;;2.53;2.27;;;14.20;90.90;;;;;;5053183;28;20451;-61
2024/02/16 12:14:24;;;;;;;3.23;1.60;;;14.00;91.60;;;;;;5053398;28;20400;-61
2024/02/16 12:16:56;;;;;;;5.23;1.70;;;13.80;92.00;;;;;;5052843;28;20420;-61
2024/02/16 12:19:23;;;;;;;2.33;2.00;;;13.70;92.70;;;;;;5053254;28;20471;-61
2024/02/16 12:21:52;;;;;;;2.60;1.57;;;13.70;93.60;;;;;;5053111;28;20544;-61
2024/02/16 12:24:19;;;;;;;3.03;2.80;;;13.70;93.50;;;;;;5053429;28;20418;-61
2024/02/16 12:26:45;;;;;;;4.30;2.00;;;13.60;94.00;;;;;;5053048;28;20405;-61
2024/02/16 12:29:13;;;;;;;3.50;2.00;;;13.60;94.20;;;;;;5053107;28;20470;-61
2024/02/16 12:31:41;;;;;;;1.83;1.73;;;13.60;94.50;;;;;;5053038;28;20213;-61
2024/02/16 12:34:07;;;;;;;3.57;2.40;;;13.60;94.70;;;;;;5053172;28;20419;-61
2024/02/16 12:36:34;;;;;;;3.17;1.90;;;13.50;94.90;;;;;;5053240;28;20457;-61
2024/02/16 12:39:02;;;;;;;4.27;2.17;;;13.50;95.10;;;;;;5052735;28;20541;-61
2024/02/16 12:41:28;;;;;;;3.57;2.80;;;13.60;95.40;;;;;;5052733;28;20425;-61
2024/02/16 12:43:54;;;;;;;3.30;2.40;;;13.60;95.50;;;;;;5052871;28;20397;-61
2024/02/16 12:46:20;;;;;;;2.27;2.10;;;13.60;95.70;;;;;;5052734;28;20484;-61
2024/02/16 12:48:45;;;;;;;4.87;2.80;;;13.70;95.80;;;;;;5052581;28;20178;-61
2024/02/16 12:51:11;;;;;;;3.57;2.10;;;13.80;95.80;;;;;;5052675;28;20170;-61